createdAt,value
2022-09-07T00:00:32.052Z,45.57
2022-09-07T00:02:59.574Z,45.30
2022-09-07T00:05:28.241Z,45.21
2022-09-07T00:07:55.674Z,44.62
2022-09-07T00:10:23.346Z,44.64
2022-09-07T00:12:50.963Z,44.60
2022-09-07T00:15:18.291Z,44.45
2022-09-07T00:17:45.750Z,44.12
2022-09-07T00:20:12.922Z,44.19
2022-09-07T00:22:40.104Z,44.05
2022-09-07T00:25:07.715Z,43.92
2022-09-07T00:27:35.002Z,43.89
2022-09-07T00:30:02.168Z,43.63
2022-09-07T00:32:29.607Z,43.62
2022-09-07T00:34:56.859Z,43.62
2022-09-07T00:37:24.006Z,43.77
2022-09-07T00:39:51.750Z,43.67
2022-09-07T00:42:20.223Z,43.54
2022-09-07T00:44:56.306Z,43.71
2022-09-07T00:47:32.914Z,44.09
2022-09-07T00:50:00.829Z,44.43
2022-09-07T00:52:28.349Z,44.47
2022-09-07T00:54:56.770Z,45.41
2022-09-07T00:57:26.294Z,44.76
2022-09-07T00:59:53.905Z,44.49
2022-09-07T01:02:23.530Z,44.36
2022-09-07T01:04:51.946Z,44.43
2022-09-07T01:07:19.445Z,46.66
2022-09-07T01:09:47.333Z,45.05
2022-09-07T01:12:14.735Z,45.45
2022-09-07T01:14:47.495Z,45.32
2022-09-07T01:17:17.615Z,45.91
2022-09-07T01:19:51.203Z,45.30
2022-09-07T01:22:24.551Z,45.35
2022-09-07T01:24:58.286Z,45.16
2022-09-07T01:27:34.266Z,45.79
2022-09-07T01:30:07.549Z,47.32
2022-09-07T01:32:46.633Z,47.53
2022-09-07T01:35:29.399Z,52.74
2022-09-07T01:38:00.141Z,49.95
2022-09-07T01:40:34.173Z,50.37
2022-09-07T01:43:02.488Z,49.15
2022-09-07T01:45:31.350Z,51.61
2022-09-07T01:47:59.198Z,50.56
2022-09-07T01:50:27.606Z,50.67
2022-09-07T01:53:02.161Z,49.75
2022-09-07T01:55:34.134Z,51.58
2022-09-07T01:58:20.557Z,49.62
2022-09-07T02:00:49.333Z,52.21
2022-09-07T02:03:28.772Z,51.32
2022-09-07T02:06:00.129Z,53.22
2022-09-07T02:08:32.346Z,53.13
2022-09-07T02:11:07.913Z,50.56
2022-09-07T02:13:36.408Z,50.90
2022-09-07T02:16:06.866Z,51.21
2022-09-07T02:18:36.315Z,50.19
2022-09-07T02:21:03.750Z,50.48
2022-09-07T02:23:33.251Z,50.66
2022-09-07T02:26:01.649Z,50.60
2022-09-07T02:28:29.929Z,50.68
2022-09-07T02:30:57.179Z,51.34
2022-09-07T02:33:24.338Z,50.37
2022-09-07T02:35:51.819Z,50.80
2022-09-07T02:38:19.014Z,51.34
2022-09-07T02:40:52.891Z,50.33
2022-09-07T02:43:20.311Z,52.90
2022-09-07T02:45:47.427Z,49.76
2022-09-07T02:48:33.315Z,49.61
2022-09-07T02:51:10.112Z,50.64
2022-09-07T02:54:00.517Z,49.14
2022-09-07T02:56:30.899Z,49.14
2022-09-07T02:59:01.157Z,50.36
2022-09-07T03:01:37.550Z,49.00
2022-09-07T03:04:12.438Z,49.42
2022-09-07T03:06:41.053Z,47.77
2022-09-07T03:09:10.592Z,50.62
2022-09-07T03:11:37.840Z,53.31
2022-09-07T03:14:33.421Z,54.17
2022-09-07T03:17:00.586Z,50.22
2022-09-07T03:19:27.995Z,48.95
2022-09-07T03:21:55.166Z,53.10
2022-09-07T03:24:22.329Z,50.61
2022-09-07T03:26:51.446Z,50.97
2022-09-07T03:29:18.863Z,51.13
2022-09-07T03:31:46.272Z,50.99
2022-09-07T03:34:13.684Z,49.11
2022-09-07T03:36:40.875Z,49.79
2022-09-07T03:39:08.071Z,48.62
2022-09-07T03:41:35.497Z,47.40
2022-09-07T03:44:05.788Z,47.02
2022-09-07T03:46:33.262Z,46.93
2022-09-07T03:49:00.792Z,46.91
2022-09-07T03:51:28.189Z,46.28
2022-09-07T03:53:55.381Z,45.67
2022-09-07T03:56:25.019Z,45.86
2022-09-07T03:58:53.204Z,45.44
2022-09-07T04:01:21.581Z,45.78
2022-09-07T04:03:49.072Z,47.68
2022-09-07T04:06:16.493Z,46.51
2022-09-07T04:08:43.719Z,46.26
2022-09-07T04:11:13.143Z,46.39
2022-09-07T04:13:41.850Z,45.58
2022-09-07T04:16:12.775Z,47.60
2022-09-07T04:18:40.564Z,46.91
2022-09-07T04:21:07.723Z,46.91
2022-09-07T04:23:36.831Z,48.42
2022-09-07T04:26:04.241Z,51.34
2022-09-07T04:28:31.609Z,48.45
2022-09-07T04:31:02.160Z,48.05
2022-09-07T04:33:30.987Z,48.42
2022-09-07T04:35:59.427Z,49.19
2022-09-07T04:38:26.922Z,48.16
2022-09-07T04:41:00.491Z,51.32
2022-09-07T04:43:28.306Z,51.37
2022-09-07T04:45:55.818Z,50.33
2022-09-07T04:48:23.016Z,50.18
2022-09-07T04:50:52.074Z,47.01
2022-09-07T04:53:19.859Z,46.99
2022-09-07T04:55:47.699Z,46.40
2022-09-07T04:58:14.865Z,44.52
2022-09-07T05:00:42.256Z,45.17
2022-09-07T05:03:12.003Z,44.23
2022-09-07T05:05:39.362Z,45.47
2022-09-07T05:08:07.080Z,46.37
2022-09-07T05:10:34.295Z,47.21
2022-09-07T05:13:02.033Z,45.38
2022-09-07T05:15:30.207Z,48.78
2022-09-07T05:17:57.910Z,45.37
2022-09-07T05:20:25.311Z,44.53
2022-09-07T05:22:59.549Z,45.71
2022-09-07T05:25:27.984Z,47.16
2022-09-07T05:27:55.434Z,45.65
2022-09-07T05:33:10.015Z,46.71
2022-09-07T05:35:37.201Z,49.79
2022-09-07T05:38:04.370Z,47.75
2022-09-07T05:40:33.589Z,47.37
2022-09-07T05:43:02.321Z,48.71
2022-09-07T05:45:29.608Z,47.59
2022-09-07T05:47:57.078Z,50.01
2022-09-07T05:50:24.265Z,47.26
2022-09-07T05:52:51.419Z,45.50
2022-09-07T05:55:30.102Z,47.72
2022-09-07T05:57:57.848Z,47.86
2022-09-07T06:00:25.280Z,50.66
2022-09-07T06:02:52.758Z,50.64
2022-09-07T06:05:19.965Z,51.57
2022-09-07T06:07:48.135Z,50.40
2022-09-07T06:13:02.770Z,47.31
2022-09-07T06:15:31.885Z,47.35
2022-09-07T06:17:59.063Z,47.50
2022-09-07T06:20:26.342Z,47.66
2022-09-07T06:22:55.917Z,47.64
2022-09-07T06:25:23.082Z,49.25
2022-09-07T06:27:50.231Z,47.72
2022-09-07T06:30:17.773Z,47.21
2022-09-07T06:32:45.191Z,48.69
2022-09-07T06:35:12.777Z,49.82
2022-09-07T06:37:40.262Z,50.66
2022-09-07T06:40:07.978Z,47.84
2022-09-07T06:42:36.256Z,47.85
2022-09-07T06:45:04.173Z,49.52
2022-09-07T06:47:31.402Z,47.94
2022-09-07T06:49:59.161Z,47.70
2022-09-07T06:52:27.357Z,47.55
2022-09-07T06:57:24.609Z,47.93
2022-09-07T06:59:52.060Z,45.95
2022-09-07T07:02:19.571Z,45.41
2022-09-07T07:04:46.754Z,44.88
2022-09-07T07:07:14.345Z,44.94
2022-09-07T07:09:41.782Z,45.94
2022-09-07T07:12:09.714Z,45.19
2022-09-07T07:14:39.782Z,45.42
2022-09-07T07:17:10.997Z,49.07
2022-09-07T07:19:38.409Z,46.03
2022-09-07T07:22:18.619Z,46.27
2022-09-07T07:24:53.141Z,46.50
2022-09-07T07:27:21.600Z,46.89
2022-09-07T07:29:48.759Z,45.58
2022-09-07T07:32:16.187Z,43.91
2022-09-07T07:34:43.314Z,45.03
2022-09-07T07:37:10.446Z,43.22
2022-09-07T07:42:25.142Z,42.85
2022-09-07T07:47:39.817Z,43.05
2022-09-07T07:55:43.236Z,45.68
2022-09-07T07:58:10.832Z,45.68
2022-09-07T08:00:53.652Z,45.09
2022-09-07T08:03:22.426Z,44.05
2022-09-07T08:05:49.650Z,45.51
2022-09-07T08:08:16.831Z,44.71
2022-09-07T08:10:46.006Z,43.09
2022-09-07T08:13:14.167Z,41.85
2022-09-07T08:15:44.597Z,42.92
2022-09-07T08:18:12.639Z,42.25
2022-09-07T08:20:40.259Z,42.41
2022-09-07T08:23:08.303Z,39.98
2022-09-07T08:25:35.786Z,42.60
2022-09-07T08:28:03.120Z,41.36
2022-09-07T08:30:30.222Z,41.93
2022-09-07T08:32:57.616Z,42.23
2022-09-07T08:35:24.700Z,42.26
2022-09-07T08:37:51.796Z,41.62
2022-09-07T08:40:19.584Z,42.00
2022-09-07T08:43:05.599Z,41.53
2022-09-07T08:45:34.417Z,41.25
2022-09-07T08:48:01.765Z,40.08
2022-09-07T08:50:38.052Z,39.92
2022-09-07T08:53:09.337Z,41.68
2022-09-07T08:55:37.600Z,40.39
2022-09-07T08:58:14.563Z,39.59
2022-09-07T09:01:30.783Z,40.28
2022-09-07T09:06:35.354Z,41.46
2022-09-07T09:09:05.631Z,40.36
2022-09-07T09:11:51.585Z,38.57
2022-09-07T09:14:18.709Z,38.65
2022-09-07T09:16:47.123Z,39.63
2022-09-07T09:19:29.505Z,40.31
2022-09-07T09:22:02.362Z,40.26
2022-09-07T09:24:30.949Z,39.84
2022-09-07T09:26:58.417Z,40.39
2022-09-07T09:29:25.528Z,41.14
2022-09-07T09:31:53.575Z,41.77
2022-09-07T09:34:24.052Z,40.32
2022-09-07T09:36:53.868Z,39.52
2022-09-07T09:39:28.477Z,41.12
2022-09-07T09:41:56.104Z,39.29
2022-09-07T09:44:23.482Z,39.32
2022-09-07T09:47:29.687Z,39.17
2022-09-07T09:49:40.606Z,38.87
2022-09-07T09:52:41.780Z,37.83
2022-09-07T09:55:33.332Z,38.01
2022-09-07T10:01:21.136Z,36.26
2022-09-07T10:06:16.391Z,35.83
2022-09-07T10:09:10.030Z,35.28
2022-09-07T10:14:34.854Z,37.90
2022-09-07T10:17:09.294Z,36.96
2022-09-07T10:19:37.727Z,35.24
2022-09-07T10:22:21.854Z,35.05
2022-09-07T10:24:50.219Z,34.16
2022-09-07T10:27:37.171Z,33.96
2022-09-07T10:30:09.919Z,34.55
2022-09-07T10:32:36.947Z,35.18
2022-09-07T10:35:23.176Z,34.14
2022-09-07T10:37:56.425Z,35.15
2022-09-07T10:40:26.149Z,34.50
2022-09-07T10:43:25.883Z,33.84
2022-09-07T10:45:56.035Z,34.44
2022-09-07T10:48:35.954Z,34.59
2022-09-07T10:51:13.410Z,33.70
2022-09-07T10:57:03.758Z,34.69
2022-09-07T11:02:30.619Z,33.46
2022-09-07T11:05:00.386Z,34.03
2022-09-07T11:07:46.744Z,32.79
2022-09-07T11:10:13.821Z,34.15
2022-09-07T11:12:43.260Z,34.27
2022-09-07T11:15:10.384Z,34.90
2022-09-07T11:17:43.628Z,35.77
2022-09-07T11:20:18.086Z,35.14
2022-09-07T11:23:04.126Z,33.89
2022-09-07T11:25:33.958Z,32.58
2022-09-07T11:28:09.055Z,34.15
2022-09-07T11:30:37.465Z,35.21
2022-09-07T11:33:10.540Z,34.29
2022-09-07T11:35:50.158Z,35.63
2022-09-07T11:38:30.509Z,33.26
2022-09-07T11:41:08.191Z,32.00
2022-09-07T11:43:36.788Z,30.90
2022-09-07T11:46:05.789Z,33.41
2022-09-07T11:48:34.060Z,32.34
2022-09-07T11:51:03.370Z,31.96
2022-09-07T11:53:34.681Z,32.50
2022-09-07T11:56:25.213Z,32.94
2022-09-07T11:59:21.910Z,31.89
2022-09-07T12:01:53.207Z,32.20
2022-09-07T12:04:29.365Z,30.78
2022-09-07T12:07:02.238Z,30.64
2022-09-07T12:09:52.242Z,32.88
2022-09-07T12:12:38.215Z,33.32
2022-09-07T12:15:17.846Z,33.45
2022-09-07T12:17:47.763Z,33.04
2022-09-07T12:20:26.134Z,32.56
2022-09-07T12:23:04.848Z,32.64
2022-09-07T12:25:33.701Z,32.14
2022-09-07T12:28:00.992Z,32.75
2022-09-07T12:30:30.134Z,31.90
2022-09-07T12:32:58.803Z,32.45
2022-09-07T12:35:29.833Z,32.14
2022-09-07T12:38:00.349Z,32.85
2022-09-07T12:40:30.630Z,34.48
2022-09-07T12:43:12.965Z,33.38
2022-09-07T12:45:40.407Z,33.54
2022-09-07T12:48:16.636Z,32.96
2022-09-07T12:50:51.090Z,33.85
2022-09-07T12:53:20.931Z,32.58
2022-09-07T12:56:18.145Z,32.77
2022-09-07T12:58:56.126Z,32.70
2022-09-07T13:01:35.717Z,31.65
2022-09-07T13:04:09.159Z,32.82
2022-09-07T13:07:02.617Z,32.92
2022-09-07T13:09:33.361Z,35.14
2022-09-07T13:12:01.372Z,31.36
2022-09-07T13:14:28.867Z,33.08
2022-09-07T13:17:16.417Z,31.87
2022-09-07T13:19:46.802Z,32.38
2022-09-07T13:22:43.271Z,30.57
2022-09-07T13:25:24.742Z,32.57
2022-09-07T13:27:51.855Z,31.44
2022-09-07T13:30:23.631Z,34.10
2022-09-07T13:35:38.249Z,30.60
2022-09-07T13:38:05.385Z,29.90
2022-09-07T13:40:38.055Z,31.55
2022-09-07T13:43:05.411Z,31.21
2022-09-07T13:45:46.879Z,29.84
2022-09-07T13:48:14.260Z,29.39
2022-09-07T13:50:45.761Z,29.53
2022-09-07T13:53:28.346Z,28.44
2022-09-07T13:55:55.765Z,30.34
2022-09-07T13:58:26.370Z,31.34
2022-09-07T14:00:57.739Z,31.96
2022-09-07T14:03:25.788Z,32.03
2022-09-07T14:06:11.378Z,31.55
2022-09-07T14:08:39.884Z,30.42
2022-09-07T14:11:23.637Z,33.32
2022-09-07T14:14:09.904Z,31.46
2022-09-07T14:16:37.357Z,31.55
2022-09-07T14:19:11.733Z,30.81
2022-09-07T14:21:38.983Z,32.19
2022-09-07T14:24:26.721Z,32.86
2022-09-07T14:26:54.042Z,33.69
2022-09-07T14:29:25.710Z,33.00
2022-09-07T14:31:52.894Z,33.31
2022-09-07T14:34:21.853Z,33.16
2022-09-07T14:36:49.379Z,33.74
2022-09-07T14:39:17.362Z,33.81
2022-09-07T14:41:44.690Z,32.06
2022-09-07T14:44:31.916Z,33.22
2022-09-07T14:46:59.752Z,33.36
2022-09-07T14:49:28.736Z,31.11
2022-09-07T14:51:56.096Z,32.13
2022-09-07T14:54:25.925Z,32.50
2022-09-07T14:57:01.117Z,30.91
2022-09-07T14:59:30.845Z,33.60
2022-09-07T15:02:17.037Z,33.00
2022-09-07T15:04:53.052Z,32.76
2022-09-07T15:07:29.434Z,33.38
2022-09-07T15:09:56.541Z,32.91
2022-09-07T15:12:36.513Z,33.03
2022-09-07T15:15:11.550Z,31.99
2022-09-07T15:17:46.205Z,34.12
2022-09-07T15:20:32.666Z,31.64
2022-09-07T15:23:00.791Z,32.83
2022-09-07T15:25:28.961Z,33.29
2022-09-07T15:27:56.037Z,32.46
2022-09-07T15:30:24.750Z,33.22
2022-09-07T15:32:51.965Z,33.91
2022-09-07T15:35:19.102Z,33.71
2022-09-07T15:38:03.171Z,34.42
2022-09-07T15:40:33.262Z,34.24
2022-09-07T15:43:02.055Z,32.85
2022-09-07T15:45:32.192Z,34.85
2022-09-07T15:47:59.326Z,35.41
2022-09-07T15:50:26.673Z,35.61
2022-09-07T15:52:53.822Z,36.06
2022-09-07T15:55:20.932Z,35.50
2022-09-07T15:57:50.152Z,35.30
2022-09-07T16:00:22.499Z,35.16
2022-09-07T16:03:06.454Z,35.12
2022-09-07T16:05:34.470Z,34.82
2022-09-07T16:11:05.846Z,34.61
2022-09-07T16:13:33.770Z,35.22
2022-09-07T16:16:02.014Z,35.04
2022-09-07T16:18:31.754Z,35.25
2022-09-07T16:21:11.752Z,35.33
2022-09-07T16:23:40.765Z,35.39
2022-09-07T16:26:09.244Z,35.80
2022-09-07T16:28:40.194Z,35.74
2022-09-07T16:31:08.854Z,35.36
2022-09-07T16:33:37.211Z,35.98
2022-09-07T16:36:06.201Z,35.83
2022-09-07T16:38:49.344Z,35.71
2022-09-07T16:41:27.426Z,35.33
2022-09-07T16:43:55.051Z,35.03
2022-09-07T16:46:23.296Z,34.90
2022-09-07T16:48:50.650Z,35.26
2022-09-07T16:51:20.533Z,35.30
2022-09-07T16:53:48.920Z,34.91
2022-09-07T16:56:17.206Z,34.43
2022-09-07T16:58:48.807Z,34.32
2022-09-07T17:01:17.095Z,34.26
2022-09-07T17:03:44.853Z,33.90
2022-09-07T17:06:13.362Z,34.03
2022-09-07T17:08:40.609Z,34.28
2022-09-07T17:11:09.065Z,34.34
2022-09-07T17:13:36.741Z,34.21
2022-09-07T17:16:08.019Z,34.58
2022-09-07T17:21:22.579Z,34.75
2022-09-07T17:23:55.094Z,34.75
2022-09-07T17:26:23.711Z,34.67
2022-09-07T17:28:54.778Z,34.85
2022-09-07T17:34:11.283Z,35.13
2022-09-07T17:36:38.394Z,35.50
2022-09-07T17:39:20.962Z,35.33
2022-09-07T17:41:48.656Z,35.48
2022-09-07T17:44:15.829Z,35.75
2022-09-07T17:46:43.394Z,35.73
2022-09-07T17:49:14.083Z,35.82
2022-09-07T17:51:41.452Z,35.96
2022-09-07T17:54:11.733Z,35.80
2022-09-07T17:56:40.123Z,35.65
2022-09-07T18:01:55.641Z,35.55
2022-09-07T18:04:23.526Z,35.82
2022-09-07T18:06:51.349Z,35.83
2022-09-07T18:09:20.051Z,35.60
2022-09-07T18:11:49.361Z,35.32
2022-09-07T18:14:17.442Z,35.21
2022-09-07T18:16:45.474Z,35.55
2022-09-07T18:19:13.531Z,35.21
2022-09-07T18:21:42.404Z,35.26
2022-09-07T18:24:18.036Z,35.24
2022-09-07T18:26:50.392Z,35.38
2022-09-07T18:29:28.748Z,35.47
2022-09-07T18:31:57.735Z,35.51
2022-09-07T18:34:25.349Z,35.73
2022-09-07T18:36:52.576Z,35.83
2022-09-07T18:39:20.301Z,35.83
2022-09-07T18:41:47.819Z,35.81
2022-09-07T18:47:03.113Z,35.52
2022-09-07T18:49:30.624Z,35.96
2022-09-07T18:54:45.827Z,35.61
2022-09-07T18:57:13.336Z,35.61
2022-09-07T18:59:40.982Z,35.26
2022-09-07T19:02:09.330Z,35.39
2022-09-07T19:07:29.012Z,35.80
2022-09-07T19:09:57.586Z,35.75
2022-09-07T19:12:25.417Z,36.13
2022-09-07T19:14:52.948Z,35.72
2022-09-07T19:17:20.808Z,35.59
2022-09-07T19:19:48.989Z,35.49
2022-09-07T19:22:16.519Z,35.40
2022-09-07T19:24:43.998Z,35.46
2022-09-07T19:27:11.791Z,35.59
2022-09-07T19:29:39.287Z,35.60
2022-09-07T19:32:07.976Z,35.76
2022-09-07T19:34:36.548Z,35.77
2022-09-07T19:37:04.595Z,35.78
2022-09-07T19:39:32.211Z,35.71
2022-09-07T19:42:02.248Z,35.98
2022-09-07T19:44:30.023Z,35.83
2022-09-07T19:46:57.624Z,36.14
2022-09-07T19:49:25.423Z,36.10
2022-09-07T19:51:52.903Z,35.93
2022-09-07T19:54:20.407Z,35.90
2022-09-07T19:56:48.278Z,35.89
2022-09-07T19:59:16.023Z,36.42
2022-09-07T20:01:46.519Z,36.61
2022-09-07T20:04:19.607Z,37.11
2022-09-07T20:06:50.276Z,36.76
2022-09-07T20:09:18.666Z,36.77
2022-09-07T20:11:47.926Z,36.88
2022-09-07T20:14:16.238Z,36.35
2022-09-07T20:16:46.835Z,36.14
2022-09-07T20:19:17.690Z,36.03
2022-09-07T20:21:45.441Z,35.73
2022-09-07T20:24:12.889Z,35.93
2022-09-07T20:26:40.204Z,35.55
2022-09-07T20:31:55.300Z,34.96
2022-09-07T20:34:22.825Z,35.01
2022-09-07T20:36:50.554Z,35.07
2022-09-07T20:39:17.909Z,35.35
2022-09-07T20:41:45.502Z,35.23
2022-09-07T20:44:12.744Z,35.62
2022-09-07T20:46:39.922Z,35.46
2022-09-07T20:49:07.434Z,35.48
2022-09-07T20:51:35.264Z,35.65
2022-09-07T20:54:02.395Z,35.56
2022-09-07T20:56:30.853Z,35.53
2022-09-07T20:59:00.170Z,35.65
2022-09-07T21:01:27.840Z,36.15
2022-09-07T21:03:56.550Z,35.89
2022-09-07T21:06:24.073Z,36.13
2022-09-07T21:08:51.286Z,35.82
2022-09-07T21:11:22.888Z,35.78
2022-09-07T21:14:00.040Z,35.81
2022-09-07T21:16:28.159Z,35.47
2022-09-07T21:18:56.147Z,34.93
2022-09-07T21:21:23.782Z,34.96
2022-09-07T21:23:55.067Z,35.02
2022-09-07T21:26:22.381Z,34.77
2022-09-07T21:28:54.108Z,35.00
2022-09-07T21:31:21.732Z,35.36
2022-09-07T21:33:55.976Z,35.85
2022-09-07T21:36:26.203Z,36.00
2022-09-07T21:38:54.525Z,35.28
2022-09-07T21:41:23.147Z,35.23
2022-09-07T21:43:57.714Z,35.23
2022-09-07T21:46:28.494Z,35.46
2022-09-07T21:48:56.402Z,35.25
2022-09-07T21:51:23.685Z,35.11
2022-09-07T21:53:52.117Z,35.46
2022-09-07T21:56:19.610Z,35.26
2022-09-07T21:58:47.213Z,35.28
2022-09-07T22:01:17.875Z,35.34
2022-09-07T22:03:46.579Z,35.40
2022-09-07T22:06:14.401Z,36.06
2022-09-07T22:08:41.794Z,35.67
2022-09-07T22:11:10.687Z,36.08
2022-09-07T22:13:37.954Z,35.67
2022-09-07T22:16:05.262Z,35.83
2022-09-07T22:18:32.699Z,36.06
2022-09-07T22:21:04.160Z,35.90
2022-09-07T22:23:32.319Z,36.29
2022-09-07T22:25:59.762Z,36.48
2022-09-07T22:28:28.567Z,36.32
2022-09-07T22:30:55.945Z,36.36
2022-09-07T22:33:23.362Z,36.28
2022-09-07T22:35:50.639Z,36.57
2022-09-07T22:38:17.753Z,36.56
2022-09-07T22:40:45.121Z,36.48
2022-09-07T22:43:12.275Z,36.33
2022-09-07T22:45:39.467Z,36.89
2022-09-07T22:48:06.974Z,36.51
2022-09-07T22:50:34.085Z,36.56
2022-09-07T22:53:01.227Z,36.48
2022-09-07T22:55:28.576Z,36.38
2022-09-07T22:57:55.718Z,36.30
2022-09-07T23:00:22.818Z,36.81
2022-09-07T23:02:50.220Z,36.68
2022-09-07T23:05:17.348Z,36.67
2022-09-07T23:07:44.503Z,36.94
2022-09-07T23:10:14.189Z,36.76
2022-09-07T23:12:41.302Z,37.07
2022-09-07T23:15:08.615Z,37.39
2022-09-07T23:17:35.993Z,37.43
2022-09-07T23:20:03.160Z,38.19
2022-09-07T23:22:30.325Z,37.70
2022-09-07T23:24:57.690Z,36.95
2022-09-07T23:27:24.801Z,36.60
2022-09-07T23:29:52.052Z,37.00
2022-09-07T23:32:19.452Z,36.54
2022-09-07T23:34:47.376Z,36.12
2022-09-07T23:37:14.474Z,35.93
2022-09-07T23:39:41.994Z,35.77
2022-09-07T23:42:09.170Z,36.63
2022-09-07T23:44:36.293Z,36.17
2022-09-07T23:47:03.673Z,36.26
2022-09-07T23:49:30.769Z,36.40
2022-09-07T23:51:57.898Z,36.19
2022-09-07T23:54:25.245Z,36.28
2022-09-07T23:56:52.368Z,36.14
2022-09-07T23:59:19.472Z,35.99
